METAR Data
IDs: Format: Raw Decoded Include TAF

Data at: 1858 UTC 25 Mar 2019

KHQZ 251850Z 01011G18KT 10SM CLR 19/09 A3021
KHQZ 251750Z 35010G15KT 10SM CLR 19/10 A3022
KHQZ 251650Z 35010G15KT 10SM CLR 18/10 A3022
KHQZ 251550Z 35011KT 10SM CLR 17/09 A3021
KHQZ 251450Z 35011KT 10SM CLR 15/10 A3018
KHQZ 251350Z COR 35010G14KT 10SM CLR 14/10 A3015
KHQZ 251250Z 35006KT 10SM CLR 13/10 A3013
KHQZ 251150Z 35008KT 10SM BKN075 14/11 A3011
KHQZ 251135Z AUTO 36008KT 10SM BKN060 BKN075 14/11 A3011 RMK AO1 T01360108
KHQZ 251115Z AUTO 36005KT 10SM SCT060 SCT070 14/11 A3009 RMK AO1 T01400108
KHQZ 251055Z AUTO 36008KT 10SM SCT050 BKN065 14/11 A3009 RMK AO1 T01420110
KHQZ 251035Z AUTO 36008KT 10SM BKN050 OVC070 15/11 A3008 RMK AO1 T01460114
KHQZ 251015Z AUTO 36008KT 10SM BKN050 OVC070 15/12 A3007 RMK AO1 T01470122
KHQZ 250955Z AUTO 36006KT 10SM OVC050 15/13 A3006 RMK AO1 T01510130
KHQZ 250935Z AUTO 36005KT 10SM OVC050 16/13 A3005 RMK AO1 T01560129
KHQZ 250915Z AUTO 01005KT 10SM OVC050 16/13 A3004 RMK AO1 T01600129
KHQZ 250855Z AUTO 02003KT 10SM BKN050 OVC060 16/14 A3004 RMK AO1 60049 T01590135
KHQZ 250835Z AUTO 00000KT 10SM OVC050 16/14 A3004 RMK AO1 T01610138
KHQZ 250815Z AUTO 01003KT 10SM OVC050 16/14 A3004 RMK AO1 T01630142
KHQZ 250755Z AUTO 01004KT 10SM OVC050 17/14 A3004 RMK AO1 T01650143
KHQZ 250735Z AUTO 36008G18KT 10SM BKN060 BKN070 BKN080 17/15 A3003 RMK AO1 T01660150
KHQZ 250715Z AUTO 35008KT 10SM SCT048 SCT060 17/17 A3003 RMK AO1 T01700167
KHQZ 250655Z AUTO 34008KT 10SM SCT048 SCT060 BKN110 17/17 A3001 RMK AO1 P0049 T01690165
KHQZ 250635Z AUTO 35006KT 10SM SCT006 SCT023 BKN100 16/16 A3001 RMK AO1 P0049 T01620158
KHQZ 250615Z AUTO 33012G40KT 1/2SM BKN006 BKN018 OVC029 16/15 A3002 RMK AO1 P0037 T01640149
KHQZ 250555Z AUTO 00000KT 10SM OVC047 18/15 A2999 RMK AO1 T01760145 10240 20172 402690160
KHQZ 250535Z AUTO 00000KT 10SM BKN047 18/15 A2999 RMK AO1 T01750146
KHQZ 250515Z AUTO 34004KT 10SM CLR 18/15 A3001 RMK AO1 T01780152
KHQZ 250455Z AUTO 18004KT 10SM CLR 17/15 A2999 RMK AO1 T01730152
KHQZ 250435Z AUTO 18003KT 10SM SCT055 19/16 A3000 RMK AO1 T01850156
KHQZ 250415Z AUTO 32003KT 10SM CLR 19/16 A3001 RMK AO1 T01920161
KHQZ 250355Z AUTO 01004KT 10SM SCT065 19/16 A3000 RMK AO1 T01930160
KHQZ 250335Z AUTO 00000KT 10SM SCT065 20/16 A3000 RMK AO1 T01950162
KHQZ 250315Z AUTO 00000KT 10SM CLR 20/16 A3000 RMK AO1 T02010161
KHQZ 250255Z AUTO 00000KT 10SM CLR 21/16 A2999 RMK AO1 T02050158
KHQZ 250235Z AUTO 14006KT 10SM CLR 21/16 A2998 RMK AO1 T02050157
KHQZ 250215Z AUTO 15006KT 10SM CLR 21/16 A2997 RMK AO1 T02070157
KHQZ 250155Z AUTO 14006KT 10SM CLR 22/16 A2996 RMK AO1 T02160159
KHQZ 250050Z 16012KT 10SM CLR 23/16 A2995 RMK TS NE
KHQZ 242350Z 16014G19KT 10SM CLR 24/16 A2994
KHQZ 242250Z 15014G20KT 10SM FEW037 26/16 A2995
KHQZ 242150Z 16011G19KT 10SM SCT037 26/16 A2997
KHQZ 242050Z 15015G24KT 10SM BKN038 26/16 A2999
KHQZ 241950Z 17014G18KT 10SM BKN036 25/16 A3000
KHQZ 241850Z 18011G17KT 10SM OVC033 24/17 A3003
KHQZ 241750Z 18010KT 10SM BKN028 OVC033 23/17 A3005
KHQZ 241650Z 18013G22KT 10SM OVC025 23/16 A3006
KHQZ 241550Z 19012G19KT 10SM BKN019 22/16 A3007
KHQZ 241450Z 18014G21KT 10SM OVC011 19/16 A3007
KHQZ 241350Z 17011KT 10SM BKN012 18/16 A3006
KHQZ 241250Z 16007KT 10SM BKN012 17/16 A3005
KHQZ 241150Z 16008KT 10SM SCT014 SCT024 16/15 A3004
KHQZ 241135Z AUTO 16008KT 10SM SCT014 BKN024 17/15 A3004 RMK AO1 T01650147
KHQZ 241115Z AUTO 17009KT 10SM BKN017 OVC024 17/15 A3003 RMK AO1 T01680148
KHQZ 241055Z AUTO 17008KT 10SM OVC017 17/15 A3003 RMK AO1 T01670148
KHQZ 241035Z AUTO 16010KT 10SM OVC017 17/15 A3003 RMK AO1 T01660146
KHQZ 241015Z AUTO 17009KT 10SM OVC015 17/15 A3003 RMK AO1 T01700147
KHQZ 240955Z AUTO 17009KT 10SM OVC015 17/15 A3003 RMK AO1 T01700147
KHQZ 240935Z AUTO 16007KT 10SM OVC015 17/15 A3003 RMK AO1 T01710147
KHQZ 240915Z AUTO 17007KT 10SM OVC015 17/15 A3004 RMK AO1 T01720147
KHQZ 240855Z AUTO 17008KT 10SM OVC015 17/15 A3003 RMK AO1 T01720146
KHQZ 240835Z AUTO 17009KT 10SM OVC017 17/15 A3004 RMK AO1 T01720145
KHQZ 240815Z AUTO 17008KT 10SM OVC017 17/15 A3004 RMK AO1 T01730145
KHQZ 240755Z AUTO 17009KT 10SM BKN019 OVC035 17/14 A3004 RMK AO1 T01730143
KHQZ 240735Z AUTO 16010KT 10SM SCT021 OVC033 17/14 A3004 RMK AO1 T01730142
KHQZ 240715Z AUTO 16008KT 10SM BKN031 BKN035 17/14 A3005 RMK AO1 T01730141